Time;durP1;ratioP1;P1;durP2;ratioP2;P2;SDS_P1;SDS_P2;PMS_P1;PMS_P2;Temp;Humidity;BMP_temperature;BMP_pressure;BME280_temperature;BME280_humidity;BME280_pressure;Samples;Min_cycle;Max_cycle;Signal;HPM_P1;HPM_P2
2022/01/24 00:02:53;;;;;;;8.80;4.90;;;4.20;91.60;;;;;;10122844;28;20521;-62
2022/01/24 00:07:43;;;;;;;13.00;6.20;;;4.10;91.90;;;;;;10128125;28;20107;-62
2022/01/24 00:12:49;;;;;;;8.23;4.50;;;4.10;91.80;;;;;;10110918;28;20135;-60
2022/01/24 00:17:48;;;;;;;8.20;4.88;;;4.00;91.80;;;;;;10121713;28;20064;-62
2022/01/24 00:27:49;;;;;;;10.30;4.10;;;3.90;91.60;;;;;;10125444;28;20108;-61
2022/01/24 00:32:40;;;;;;;8.55;5.15;;;3.80;91.70;;;;;;10128826;28;20127;-61
2022/01/24 00:37:33;;;;;;;6.95;3.35;;;3.80;91.80;;;;;;10121490;28;20743;-65
2022/01/24 00:42:32;;;;;;;9.23;4.65;;;3.80;91.70;;;;;;10129182;28;20139;-61
2022/01/24 00:47:28;;;;;;;7.80;4.18;;;3.70;91.70;;;;;;10115751;28;20025;-62
2022/01/24 00:57:28;;;;;;;7.25;4.20;;;3.80;91.80;;;;;;10125706;28;20047;-62
2022/01/24 01:02:19;;;;;;;10.02;4.18;;;3.80;91.70;;;;;;10128894;28;20047;-62
2022/01/24 01:07:10;;;;;;;9.30;4.18;;;3.80;91.70;;;;;;10127670;28;20028;-61
2022/01/24 01:22:21;;;;;;;8.75;4.57;;;3.70;91.80;;;;;;10122588;28;20414;-62
2022/01/24 01:27:19;;;;;;;10.25;3.67;;;3.80;91.80;;;;;;10127125;28;20297;-63
2022/01/24 01:32:19;;;;;;;7.15;3.97;;;3.70;91.80;;;;;;10126817;28;20041;-62
2022/01/24 01:52:36;;;;;;;5.72;2.97;;;3.80;92.00;;;;;;10123185;28;20120;-61
2022/01/24 01:57:27;;;;;;;3.40;2.67;;;3.80;92.00;;;;;;10123569;28;20101;-62
2022/01/24 02:02:18;;;;;;;5.60;3.33;;;3.80;92.30;;;;;;10122658;28;20045;-63
2022/01/24 02:07:13;;;;;;;10.15;3.90;;;3.60;92.40;;;;;;10124668;28;20061;-62
2022/01/24 02:12:04;;;;;;;6.43;3.17;;;3.60;92.30;;;;;;10125921;28;20016;-61
2022/01/24 02:17:07;;;;;;;10.80;4.65;;;3.70;92.30;;;;;;10123128;28;20321;-62
2022/01/24 02:26:54;;;;;;;9.32;4.43;;;3.50;92.40;;;;;;10122691;28;20034;-61
2022/01/24 02:31:47;;;;;;;6.75;3.20;;;3.50;92.40;;;;;;10123365;28;20027;-60
2022/01/24 02:36:38;;;;;;;7.35;4.85;;;3.40;92.60;;;;;;10124611;28;20039;-65
2022/01/24 02:51:52;;;;;;;5.00;3.00;;;3.30;92.70;;;;;;10123529;28;20028;-64
2022/01/24 02:56:43;;;;;;;6.95;3.60;;;3.20;92.80;;;;;;10126992;28;20043;-62
2022/01/24 03:01:33;;;;;;;6.70;3.33;;;3.20;92.70;;;;;;10125541;28;20032;-62
2022/01/24 03:06:24;;;;;;;6.75;3.15;;;3.30;92.70;;;;;;10129623;28;20037;-61
2022/01/24 03:11:16;;;;;;;6.25;3.25;;;3.20;92.70;;;;;;10129145;28;20021;-63
2022/01/24 03:16:08;;;;;;;5.00;2.45;;;3.20;92.70;;;;;;10123396;28;20032;-64
2022/01/24 03:20:59;;;;;;;5.47;2.75;;;3.20;92.60;;;;;;10127663;28;20268;-61
2022/01/24 03:25:50;;;;;;;5.50;3.83;;;3.20;92.50;;;;;;10129528;28;20029;-61
2022/01/24 03:30:41;;;;;;;6.38;3.20;;;3.10;92.60;;;;;;10128598;28;20039;-62
2022/01/24 03:35:33;;;;;;;5.03;2.92;;;3.00;92.60;;;;;;10129672;28;20032;-62
2022/01/24 03:40:24;;;;;;;9.43;4.40;;;3.10;92.70;;;;;;10118833;28;20072;-62
2022/01/24 03:45:23;;;;;;;5.63;3.30;;;3.00;92.60;;;;;;10122836;28;20079;-62
2022/01/24 03:50:17;;;;;;;5.93;2.97;;;3.00;92.60;;;;;;10128538;28;20086;-62
2022/01/24 03:55:08;;;;;;;6.85;3.05;;;2.90;92.70;;;;;;10128670;28;20033;-62
2022/01/24 03:59:58;;;;;;;5.80;3.15;;;2.80;92.70;;;;;;10132582;28;20055;-61
2022/01/24 04:04:50;;;;;;;5.07;3.00;;;2.90;92.70;;;;;;10122491;28;20057;-62
2022/01/24 04:09:42;;;;;;;7.70;3.05;;;2.90;92.60;;;;;;10119760;28;20367;-62
2022/01/24 04:21:20;;;;;;;7.90;3.90;;;2.90;92.90;;;;;;10122664;28;20259;-61
2022/01/24 04:24:37;;;;;;;6.20;3.20;;;2.90;92.90;;;;;;10120982;28;20051;-61
2022/01/24 04:29:28;;;;;;;4.70;2.97;;;2.90;92.90;;;;;;10130533;28;20056;-61
2022/01/24 04:34:18;;;;;;;6.00;3.05;;;2.90;92.90;;;;;;10120996;28;20017;-61
2022/01/24 04:39:09;;;;;;;6.38;3.30;;;2.90;92.90;;;;;;10128837;28;20040;-62
2022/01/24 04:44:17;;;;;;;6.03;2.58;;;2.90;93.00;;;;;;10122476;28;20035;-62
2022/01/24 04:59:19;;;;;;;6.30;2.95;;;2.80;93.00;;;;;;10123733;28;20052;-61
2022/01/24 05:04:10;;;;;;;6.57;2.78;;;2.70;93.20;;;;;;10123167;28;20036;-61
2022/01/24 05:09:01;;;;;;;5.45;2.97;;;2.60;93.40;;;;;;10125083;28;20024;-61
2022/01/24 05:24:10;;;;;;;6.40;2.95;;;2.50;93.70;;;;;;10120237;28;20051;-61
2022/01/24 05:29:00;;;;;;;6.97;3.15;;;2.40;93.60;;;;;;10121993;28;20517;-62
2022/01/24 05:33:51;;;;;;;9.45;3.45;;;2.50;93.50;;;;;;10122224;28;20526;-63
2022/01/24 05:38:42;;;;;;;7.50;3.40;;;2.50;93.30;;;;;;10104824;28;20569;-62
2022/01/24 05:43:35;;;;;;;6.13;3.08;;;2.40;93.60;;;;;;10114459;28;20029;-61
2022/01/24 05:48:25;;;;;;;6.10;3.05;;;2.40;93.80;;;;;;10123704;28;20036;-61
2022/01/24 05:53:16;;;;;;;5.65;3.10;;;2.40;93.70;;;;;;10123274;28;20048;-63
2022/01/24 05:58:07;;;;;;;5.40;2.95;;;2.30;93.80;;;;;;10126298;28;20137;-60
2022/01/24 06:02:58;;;;;;;5.50;2.88;;;2.30;94.00;;;;;;10125306;28;20045;-64
2022/01/24 06:07:49;;;;;;;6.05;2.25;;;2.30;93.80;;;;;;10131120;28;20029;-61
2022/01/24 06:12:40;;;;;;;5.13;2.88;;;2.20;93.90;;;;;;10134010;28;20155;-60
2022/01/24 06:17:30;;;;;;;9.38;3.65;;;2.20;94.00;;;;;;10128892;28;20081;-60
2022/01/24 06:22:21;;;;;;;7.18;2.72;;;2.20;94.10;;;;;;10124906;28;20056;-63
2022/01/24 06:27:12;;;;;;;6.95;3.75;;;2.10;94.30;;;;;;10128860;28;20034;-60
2022/01/24 06:32:03;;;;;;;4.72;2.75;;;2.10;94.20;;;;;;10131414;28;20119;-61
2022/01/24 06:36:54;;;;;;;8.93;3.88;;;2.10;94.20;;;;;;10117714;28;20107;-61
2022/01/24 06:41:52;;;;;;;7.72;3.25;;;2.10;94.00;;;;;;10127558;28;20603;-61
2022/01/24 06:46:44;;;;;;;8.25;3.78;;;2.10;93.90;;;;;;10127566;28;20025;-60
2022/01/24 06:51:35;;;;;;;5.05;3.20;;;2.10;93.90;;;;;;10130020;28;20468;-63
2022/01/24 06:56:25;;;;;;;5.82;3.70;;;2.10;93.80;;;;;;10124560;28;20036;-61
2022/01/24 07:01:16;;;;;;;7.45;3.45;;;2.10;93.80;;;;;;10123094;28;20028;-60
2022/01/24 07:06:07;;;;;;;8.27;4.05;;;2.10;93.70;;;;;;10129438;28;20025;-61
2022/01/24 07:10:57;;;;;;;6.55;3.63;;;2.10;93.90;;;;;;10131402;28;20020;-63
2022/01/24 07:15:57;;;;;;;7.72;3.88;;;2.10;93.90;;;;;;10129953;28;20134;-61
2022/01/24 07:20:48;;;;;;;9.18;4.10;;;2.20;93.80;;;;;;10112662;28;20070;-65
2022/01/24 07:25:39;;;;;;;6.53;4.00;;;2.20;93.80;;;;;;10128753;28;20016;-66
2022/01/24 07:30:29;;;;;;;6.43;3.03;;;2.10;93.90;;;;;;10123953;28;20081;-64
2022/01/24 07:35:20;;;;;;;8.13;3.65;;;2.20;93.80;;;;;;10129988;28;20041;-63
2022/01/24 07:40:13;;;;;;;8.93;4.47;;;2.30;93.80;;;;;;10128850;28;20043;-61
2022/01/24 07:45:04;;;;;;;8.70;3.97;;;2.30;93.80;;;;;;10131325;28;20165;-66
2022/01/24 07:49:54;;;;;;;7.90;4.00;;;2.30;93.90;;;;;;10135215;28;20256;-62
2022/01/24 07:54:45;;;;;;;8.70;4.03;;;2.20;93.90;;;;;;10133940;28;20115;-65
2022/01/24 07:59:35;;;;;;;6.35;3.63;;;2.30;94.00;;;;;;10129909;28;20578;-65
2022/01/24 08:04:26;;;;;;;11.18;3.97;;;2.40;93.90;;;;;;10114750;28;20032;-66
2022/01/24 08:09:17;;;;;;;7.75;3.95;;;2.30;93.90;;;;;;10131958;28;20473;-62
2022/01/24 08:14:08;;;;;;;10.68;4.07;;;2.30;94.10;;;;;;10134767;28;20122;-61
2022/01/24 08:18:59;;;;;;;9.73;4.13;;;2.30;94.10;;;;;;10130066;28;20026;-63
2022/01/24 08:23:51;;;;;;;7.50;3.67;;;2.30;94.00;;;;;;10136833;28;20506;-63
2022/01/24 08:28:42;;;;;;;8.15;3.78;;;2.20;94.30;;;;;;10129730;28;20037;-63
2022/01/24 08:33:33;;;;;;;7.72;3.17;;;2.30;94.20;;;;;;10127758;28;20028;-63
2022/01/24 08:38:24;;;;;;;7.03;3.55;;;2.40;94.60;;;;;;10114769;28;20490;-64
2022/01/24 08:43:23;;;;;;;7.53;4.47;;;2.40;94.40;;;;;;10128489;28;20044;-62
2022/01/24 08:48:16;;;;;;;6.65;3.90;;;2.50;94.30;;;;;;10120997;28;20105;-65
2022/01/24 08:53:07;;;;;;;7.03;3.30;;;2.50;94.40;;;;;;10129382;28;20043;-64
2022/01/24 08:57:59;;;;;;;7.45;4.70;;;2.50;94.50;;;;;;10131748;28;20063;-64
2022/01/24 09:02:51;;;;;;;6.97;4.35;;;2.40;94.50;;;;;;10116178;28;20046;-61
2022/01/24 09:07:41;;;;;;;8.60;4.80;;;2.60;94.60;;;;;;10124993;28;20024;-60
2022/01/24 09:12:33;;;;;;;9.38;4.55;;;2.70;94.40;;;;;;10131053;28;20111;-63
2022/01/24 09:17:24;;;;;;;9.95;4.32;;;2.70;94.40;;;;;;10127322;28;20040;-64
2022/01/24 09:22:15;;;;;;;7.10;4.53;;;2.80;94.30;;;;;;10125046;28;20236;-65
2022/01/24 09:27:05;;;;;;;12.00;4.78;;;3.00;94.20;;;;;;10136592;28;20470;-64
2022/01/24 09:31:57;;;;;;;6.88;4.40;;;3.10;94.20;;;;;;10129596;28;20101;-63
2022/01/24 09:36:48;;;;;;;6.03;4.18;;;3.20;94.20;;;;;;10134690;28;20026;-62
2022/01/24 09:41:39;;;;;;;10.77;5.25;;;3.30;94.20;;;;;;10116648;28;20037;-61
2022/01/24 09:46:30;;;;;;;10.15;5.78;;;3.50;94.00;;;;;;10120419;28;20029;-60
2022/01/24 09:51:21;;;;;;;8.60;3.92;;;3.50;94.10;;;;;;10139221;28;20032;-60
2022/01/24 09:56:12;;;;;;;8.88;4.30;;;3.50;94.20;;;;;;10139392;28;20131;-60
2022/01/24 10:01:05;;;;;;;10.02;5.15;;;3.50;94.20;;;;;;10136597;28;20115;-60
2022/01/24 10:05:57;;;;;;;8.57;4.60;;;3.60;94.10;;;;;;10142929;28;20483;-63
2022/01/24 10:10:54;;;;;;;11.52;5.40;;;3.90;93.90;;;;;;10115670;28;20524;-63
2022/01/24 10:20:54;;;;;;;7.28;5.18;;;4.10;93.80;;;;;;10133887;28;20083;-62
2022/01/24 10:26:04;;;;;;;10.95;5.30;;;4.20;93.60;;;;;;10136509;28;20028;-62
2022/01/24 10:31:08;;;;;;;8.85;4.03;;;4.30;93.60;;;;;;10137264;28;20098;-63
2022/01/24 10:36:00;;;;;;;8.85;4.82;;;4.30;93.80;;;;;;10129692;28;20028;-61
2022/01/24 10:41:08;;;;;;;9.27;5.20;;;4.50;94.00;;;;;;10131684;28;20739;-62
2022/01/24 10:45:59;;;;;;;9.70;5.25;;;4.50;93.70;;;;;;10142801;28;20032;-61
2022/01/24 10:51:07;;;;;;;9.43;5.35;;;4.50;93.60;;;;;;10135224;28;20036;-63
2022/01/24 10:55:58;;;;;;;8.27;4.43;;;4.50;93.60;;;;;;10139770;28;20127;-61
2022/01/24 11:00:50;;;;;;;8.38;4.18;;;4.60;93.60;;;;;;10145863;28;20541;-66
2022/01/24 11:05:41;;;;;;;6.38;3.55;;;4.70;93.00;;;;;;10112566;28;20064;-65
2022/01/24 11:10:42;;;;;;;5.38;3.70;;;4.70;93.40;;;;;;10145612;28;20067;-66
2022/01/24 11:15:35;;;;;;;10.48;4.80;;;4.80;93.40;;;;;;10131282;28;20060;-67
2022/01/24 11:20:32;;;;;;;6.70;4.40;;;4.90;93.30;;;;;;10133070;28;20036;-62
2022/01/24 11:25:24;;;;;;;7.65;4.40;;;5.00;93.30;;;;;;10131703;28;20052;-65
2022/01/24 11:30:19;;;;;;;6.82;4.28;;;5.10;93.50;;;;;;10133421;28;20043;-62
2022/01/24 11:35:10;;;;;;;8.80;4.70;;;5.30;93.00;;;;;;10133169;28;20035;-63
2022/01/24 11:40:06;;;;;;;7.80;4.43;;;5.40;92.90;;;;;;10145096;28;20421;-63
2022/01/24 11:45:03;;;;;;;9.60;4.75;;;5.40;92.90;;;;;;10136044;28;20033;-64
2022/01/24 11:49:54;;;;;;;6.88;4.80;;;5.30;92.90;;;;;;10137511;28;20089;-61
2022/01/24 11:59:47;;;;;;;11.57;5.25;;;5.50;92.80;;;;;;10136721;28;20542;-63
2022/01/24 12:04:53;;;;;;;9.30;5.50;;;5.60;92.70;;;;;;10131667;28;20027;-62
2022/01/24 12:09:44;;;;;;;6.78;4.32;;;5.70;92.70;;;;;;10128734;28;20530;-62
2022/01/24 12:14:38;;;;;;;8.18;4.35;;;5.70;92.60;;;;;;10130261;28;20055;-61
2022/01/24 12:19:31;;;;;;;8.50;4.90;;;5.70;92.50;;;;;;10127429;28;20497;-62
2022/01/24 12:24:22;;;;;;;7.88;4.80;;;5.70;92.50;;;;;;10127560;28;20537;-60
2022/01/24 12:29:31;;;;;;;9.85;4.55;;;5.80;92.50;;;;;;10125622;28;20134;-61
2022/01/24 12:34:29;;;;;;;7.97;4.60;;;5.90;92.20;;;;;;10120837;28;20021;-60
2022/01/24 12:39:19;;;;;;;7.88;5.00;;;5.90;92.40;;;;;;10117125;28;20044;-63
2022/01/24 12:46:17;;;;;;;8.18;4.07;;;5.90;92.30;;;;;;10106881;28;20417;-63
2022/01/24 12:49:21;;;;;;;10.32;4.72;;;6.00;92.30;;;;;;10125803;28;20064;-64
2022/01/24 12:54:12;;;;;;;8.40;4.55;;;6.00;92.30;;;;;;10127505;28;20210;-62
2022/01/24 12:59:03;;;;;;;7.65;4.43;;;6.00;92.10;;;;;;10124599;28;20100;-65
2022/01/24 13:04:01;;;;;;;6.75;4.35;;;6.10;92.00;;;;;;10125331;28;20021;-64
2022/01/24 13:08:52;;;;;;;10.30;5.60;;;6.10;92.00;;;;;;10133030;28;20056;-66
2022/01/24 13:14:11;;;;;;;10.48;4.63;;;6.20;91.90;;;;;;10135516;28;20229;-69
2022/01/24 13:24:11;;;;;;;10.18;4.78;;;6.30;91.80;;;;;;10125176;28;20067;-65
2022/01/24 13:29:04;;;;;;;10.82;5.72;;;6.30;91.70;;;;;;10121539;28;20035;-65
2022/01/24 13:33:54;;;;;;;11.57;5.68;;;6.20;91.80;;;;;;10122797;28;20823;-65
2022/01/24 13:38:48;;;;;;;8.93;5.88;;;6.30;91.70;;;;;;10134842;28;20036;-65
2022/01/24 13:43:45;;;;;;;9.70;4.43;;;6.40;91.70;;;;;;10139800;28;20078;-66
2022/01/24 13:48:40;;;;;;;11.15;5.70;;;6.40;91.60;;;;;;10126007;28;20024;-66
2022/01/24 13:53:35;;;;;;;9.43;5.00;;;6.40;91.60;;;;;;10141646;28;20040;-62
2022/01/24 13:58:26;;;;;;;9.73;5.05;;;6.50;91.50;;;;;;10118332;28;20060;-65
2022/01/24 14:03:21;;;;;;;8.40;4.55;;;6.40;91.60;;;;;;10138572;28;20040;-67
2022/01/24 14:08:17;;;;;;;5.93;4.22;;;6.40;91.50;;;;;;10119145;28;20085;-62
2022/01/24 14:13:08;;;;;;;8.50;3.87;;;6.40;91.50;;;;;;10141607;28;20028;-63
2022/01/24 14:23:38;;;;;;;6.10;3.65;;;6.40;91.30;;;;;;10146180;28;20032;-63
2022/01/24 14:28:29;;;;;;;6.43;4.22;;;6.40;91.30;;;;;;10147080;28;20055;-63
2022/01/24 14:33:30;;;;;;;8.27;4.00;;;6.40;91.20;;;;;;10151234;28;20048;-62
2022/01/24 14:38:36;;;;;;;7.30;4.50;;;6.40;91.20;;;;;;10145834;28;20024;-66
2022/01/24 14:48:52;;;;;;;10.02;4.53;;;6.40;91.10;;;;;;10149174;28;20512;-66
2022/01/24 14:53:43;;;;;;;7.53;4.50;;;6.50;91.00;;;;;;10129315;28;20050;-64
2022/01/24 14:58:34;;;;;;;8.38;4.50;;;6.50;91.00;;;;;;10145485;28;20130;-63
2022/01/24 15:03:24;;;;;;;10.48;4.28;;;6.50;90.90;;;;;;10129385;28;20075;-66
2022/01/24 15:08:15;;;;;;;9.43;4.88;;;6.50;90.90;;;;;;10118482;28;20028;-64
2022/01/24 15:13:08;;;;;;;6.70;4.47;;;6.50;90.90;;;;;;10129083;28;20020;-66
2022/01/24 15:28:08;;;;;;;10.35;4.55;;;6.40;90.80;;;;;;10130035;28;20059;-63
2022/01/24 15:33:00;;;;;;;9.82;5.47;;;6.40;90.90;;;;;;10126021;28;20031;-63
2022/01/24 15:37:51;;;;;;;7.25;3.85;;;6.40;90.80;;;;;;10144221;28;20016;-63
2022/01/24 15:47:44;;;;;;;7.90;4.43;;;6.40;90.90;;;;;;10138758;28;20058;-63
2022/01/24 15:52:37;;;;;;;8.30;4.40;;;6.40;90.90;;;;;;10140288;28;20133;-63
2022/01/24 15:57:39;;;;;;;9.05;5.18;;;6.30;90.90;;;;;;10151365;28;20463;-67
2022/01/24 16:02:30;;;;;;;8.73;4.47;;;6.30;91.00;;;;;;10130398;28;20224;-64
2022/01/24 16:07:21;;;;;;;8.32;4.85;;;6.30;91.00;;;;;;10135542;28;20072;-64
2022/01/24 16:12:11;;;;;;;9.48;4.78;;;6.30;90.90;;;;;;10133006;28;20076;-62
2022/01/24 16:17:03;;;;;;;8.00;4.78;;;6.10;90.90;;;;;;10127072;28;20017;-62
2022/01/24 16:27:11;;;;;;;11.20;5.13;;;6.00;91.00;;;;;;10093690;28;20135;-63
2022/01/24 16:32:02;;;;;;;7.97;4.80;;;6.00;91.10;;;;;;10145910;28;20032;-63
2022/01/24 16:36:53;;;;;;;10.25;4.93;;;5.90;91.10;;;;;;10140722;28;20032;-60
2022/01/24 16:42:02;;;;;;;9.77;5.18;;;5.90;91.10;;;;;;10138725;28;20399;-63
2022/01/24 16:51:53;;;;;;;8.43;4.55;;;5.80;91.10;;;;;;10142964;28;20168;-62
2022/01/24 16:56:46;;;;;;;7.75;4.75;;;5.80;91.20;;;;;;10129303;28;20128;-64
2022/01/24 17:01:37;;;;;;;9.40;5.03;;;5.90;91.20;;;;;;10119746;28;20041;-66
2022/01/24 17:06:28;;;;;;;10.02;5.78;;;5.80;91.20;;;;;;10125220;28;20028;-67
2022/01/24 17:11:21;;;;;;;13.02;5.63;;;5.80;91.20;;;;;;10121270;28;20024;-61
2022/01/24 17:16:12;;;;;;;9.55;6.18;;;5.70;91.30;;;;;;10119234;28;20429;-65
2022/01/24 17:21:03;;;;;;;10.25;6.25;;;5.70;91.30;;;;;;10121103;28;20036;-63
2022/01/24 17:25:56;;;;;;;11.80;5.93;;;5.60;91.40;;;;;;10111679;28;20487;-62
2022/01/24 17:30:47;;;;;;;8.85;5.40;;;5.60;91.40;;;;;;10083048;28;20036;-66
2022/01/24 17:35:38;;;;;;;10.10;5.40;;;5.60;91.40;;;;;;10106314;28;20094;-65
2022/01/24 17:40:31;;;;;;;12.88;5.63;;;5.50;91.40;;;;;;10105880;28;20120;-62
2022/01/24 17:45:23;;;;;;;11.27;6.63;;;5.50;91.50;;;;;;10083209;28;20017;-61
2022/01/24 17:50:19;;;;;;;13.75;7.00;;;5.50;91.50;;;;;;10103221;28;20456;-63
2022/01/24 17:55:11;;;;;;;12.98;6.25;;;5.40;91.50;;;;;;10104920;28;20025;-61
2022/01/24 18:00:04;;;;;;;11.23;6.13;;;5.40;91.50;;;;;;10121119;28;20053;-60
2022/01/24 18:04:58;;;;;;;17.20;7.47;;;5.30;91.60;;;;;;10128926;28;20028;-61
2022/01/24 18:09:49;;;;;;;15.43;7.38;;;5.30;91.50;;;;;;10115474;28;20394;-63
2022/01/24 18:14:40;;;;;;;14.48;7.55;;;5.30;91.70;;;;;;10124554;28;20032;-61
2022/01/24 18:19:30;;;;;;;12.30;7.10;;;5.20;91.70;;;;;;10116118;28;20155;-63
2022/01/24 18:24:21;;;;;;;15.55;8.18;;;5.20;91.80;;;;;;10121226;28;20025;-59
2022/01/24 18:29:12;;;;;;;14.38;7.55;;;5.10;91.70;;;;;;10121045;28;20041;-59
2022/01/24 18:34:03;;;;;;;16.65;7.95;;;5.10;91.90;;;;;;10119970;28;20029;-61
2022/01/24 18:38:53;;;;;;;17.38;9.02;;;5.00;91.90;;;;;;10100575;28;20034;-60
2022/01/24 18:43:44;;;;;;;14.25;7.97;;;5.00;92.00;;;;;;10121095;28;20112;-61
2022/01/24 18:48:35;;;;;;;15.15;7.72;;;5.00;92.00;;;;;;10115688;28;20274;-61
2022/01/24 18:53:26;;;;;;;14.77;7.88;;;4.90;92.00;;;;;;10123578;28;20025;-61
2022/01/24 18:58:17;;;;;;;16.42;8.70;;;4.90;92.00;;;;;;10121381;28;20045;-59
2022/01/24 19:03:08;;;;;;;18.15;9.05;;;4.90;92.20;;;;;;10120301;28;20533;-60
2022/01/24 19:08:01;;;;;;;18.02;8.68;;;4.90;92.10;;;;;;10115761;28;20025;-61
2022/01/24 19:12:52;;;;;;;14.45;8.18;;;4.90;92.20;;;;;;10106874;28;20039;-60
2022/01/24 19:17:52;;;;;;;16.42;8.75;;;4.80;92.20;;;;;;10119348;28;20123;-60
2022/01/24 19:27:53;;;;;;;20.05;11.07;;;4.70;92.30;;;;;;10115223;28;20528;-62
2022/01/24 19:32:43;;;;;;;21.70;9.18;;;4.70;92.20;;;;;;10122275;28;20171;-61
2022/01/24 19:37:34;;;;;;;19.55;9.82;;;4.70;92.30;;;;;;10096866;28;20041;-62
2022/01/24 19:42:25;;;;;;;17.92;10.30;;;4.60;92.40;;;;;;10118691;28;20434;-62
2022/01/24 19:47:15;;;;;;;18.55;10.05;;;4.50;92.40;;;;;;10124694;28;20031;-62
2022/01/24 19:52:07;;;;;;;23.33;11.25;;;4.50;92.50;;;;;;10116292;28;20461;-62
2022/01/24 19:57:04;;;;;;;19.42;10.43;;;4.40;92.60;;;;;;10126528;28;20040;-60
2022/01/24 20:01:54;;;;;;;19.98;10.45;;;4.40;92.60;;;;;;10094862;28;20099;-61
2022/01/24 20:06:50;;;;;;;23.42;11.30;;;4.30;92.70;;;;;;10102044;28;20860;-60
2022/01/24 20:11:41;;;;;;;15.85;9.45;;;4.20;92.70;;;;;;10107232;28;20040;-60
2022/01/24 20:16:31;;;;;;;18.45;10.88;;;4.20;92.70;;;;;;10115938;28;20035;-60
2022/01/24 20:21:22;;;;;;;21.00;9.63;;;4.20;92.80;;;;;;10117588;28;20044;-63
2022/01/24 20:26:13;;;;;;;21.67;11.02;;;4.20;92.80;;;;;;10124393;28;20021;-63
2022/01/24 20:31:04;;;;;;;21.52;10.48;;;4.10;92.90;;;;;;10116175;28;20327;-61
2022/01/24 20:35:54;;;;;;;17.17;9.05;;;4.10;93.00;;;;;;10115352;28;20042;-60
2022/01/24 20:40:45;;;;;;;22.02;9.50;;;3.90;93.10;;;;;;10127643;28;20138;-61
2022/01/24 20:45:36;;;;;;;18.88;9.32;;;3.90;93.10;;;;;;10107888;28;20079;-65
2022/01/24 20:50:30;;;;;;;18.02;9.98;;;3.90;93.10;;;;;;10102856;28;20028;-64
2022/01/24 20:55:25;;;;;;;19.70;9.05;;;3.80;93.20;;;;;;10102630;28;20538;-61
2022/01/24 21:00:17;;;;;;;20.10;11.18;;;3.70;93.20;;;;;;10115593;28;20056;-62
2022/01/24 21:05:08;;;;;;;24.92;10.20;;;3.70;93.30;;;;;;10112556;28;20032;-62
2022/01/24 21:10:04;;;;;;;26.73;10.75;;;3.70;93.30;;;;;;10101503;28;20103;-61
2022/01/24 21:15:04;;;;;;;23.75;9.60;;;3.70;93.20;;;;;;10108172;28;20135;-62
2022/01/24 21:19:54;;;;;;;18.50;9.30;;;3.60;93.30;;;;;;10113014;28;20041;-59
2022/01/24 21:24:45;;;;;;;17.95;9.07;;;3.60;93.30;;;;;;10112151;28;20040;-60
2022/01/24 21:29:40;;;;;;;19.05;9.75;;;3.60;93.40;;;;;;10123329;28;20156;-61
2022/01/24 21:39:39;;;;;;;21.58;8.82;;;3.60;93.50;;;;;;10116489;28;20032;-62
2022/01/24 21:44:30;;;;;;;24.83;10.73;;;3.50;93.40;;;;;;10115203;28;20087;-63
2022/01/24 21:49:20;;;;;;;22.80;11.07;;;3.50;93.40;;;;;;10110527;28;20020;-63
2022/01/24 21:54:11;;;;;;;20.23;11.43;;;3.40;93.50;;;;;;10122540;28;20039;-63
2022/01/24 21:59:02;;;;;;;20.48;9.85;;;3.40;93.50;;;;;;10117547;28;20029;-61
2022/01/24 22:03:55;;;;;;;17.23;8.63;;;3.30;93.60;;;;;;10113135;28;20080;-66
2022/01/24 22:08:51;;;;;;;20.50;9.02;;;3.30;93.60;;;;;;10118465;28;20044;-66
2022/01/24 22:13:45;;;;;;;18.88;8.77;;;3.30;93.60;;;;;;10110182;28;20028;-61
2022/01/24 22:18:36;;;;;;;18.63;8.98;;;3.20;93.80;;;;;;10121330;28;20049;-63
2022/01/24 22:23:30;;;;;;;14.95;8.48;;;3.20;93.70;;;;;;10131118;28;20051;-63
2022/01/24 22:28:20;;;;;;;22.55;8.90;;;3.10;93.70;;;;;;10106147;28;20036;-64
2022/01/24 22:33:11;;;;;;;16.45;9.07;;;3.10;93.80;;;;;;10130408;28;20020;-61
2022/01/24 22:38:02;;;;;;;15.32;8.18;;;3.10;93.80;;;;;;10132595;28;20032;-62
2022/01/24 22:42:52;;;;;;;15.02;7.53;;;3.10;93.80;;;;;;10128572;28;20497;-62
2022/01/24 22:47:43;;;;;;;13.82;7.35;;;3.00;93.90;;;;;;10127589;28;20028;-66
2022/01/24 22:52:34;;;;;;;14.18;8.10;;;2.90;93.90;;;;;;10135701;28;20028;-64
2022/01/24 22:57:25;;;;;;;15.73;7.50;;;2.90;94.20;;;;;;10124699;28;20419;-64
2022/01/24 23:02:17;;;;;;;12.27;6.95;;;2.90;93.90;;;;;;10133889;28;20032;-64
2022/01/24 23:07:09;;;;;;;16.50;9.45;;;2.90;93.90;;;;;;10129708;28;20542;-63
2022/01/24 23:12:02;;;;;;;15.73;8.60;;;2.80;93.90;;;;;;10110857;28;20036;-64
2022/01/24 23:17:39;;;;;;;16.38;7.95;;;2.80;93.90;;;;;;10111821;28;20432;-63
2022/01/24 23:22:06;;;;;;;16.17;7.93;;;2.80;93.90;;;;;;10101642;28;20442;-62
2022/01/24 23:27:05;;;;;;;16.13;7.38;;;2.80;94.00;;;;;;10127915;28;20021;-63
2022/01/24 23:31:59;;;;;;;14.00;7.82;;;2.70;94.00;;;;;;10128213;28;20025;-64
2022/01/24 23:42:01;;;;;;;13.20;7.32;;;2.70;94.10;;;;;;10129826;28;20048;-63
2022/01/24 23:46:53;;;;;;;15.35;7.07;;;2.60;94.10;;;;;;10116773;28;20538;-63
2022/01/24 23:51:44;;;;;;;16.48;8.45;;;2.60;94.00;;;;;;10127828;28;20067;-64
2022/01/24 23:56:41;;;;;;;15.77;8.25;;;2.60;94.10;;;;;;10125671;28;20043;-63
